Sebewaing, Michigan
Current Conditions -  °F | °C
As of 8:15 PM on Tuesday 21 Oct 2014 (Local Time) from KCFS Reporting Station
Overcast Overcast  
Wind Chill:   Ceiling: 2600
Heat Index:   Visibility: 10mi
Dew Point:   Wind: 8mph
Humidity: 75%   Direction: 10°N
Pressure: 30.2"   Gusts: NA
Location:  43.73°N, 83.45°W
Report Text: KCFS 220015Z AUTO 01007KT 10SM BKN026 OVC033 06/02 A3020 RMK AO2 T00610019
Loading
Personal Weather Stations






























Interactive Weather Map
Tropical Storm Tracking
New forecast layout! Learn more

10-Day Weather Forecast

Advertisements
Track Severe Weather on mobile